sensor_id;sensor_type;location;lat;lon;timestamp;temperature;humidity
14733;DHT22;7457;50.960;6.830;2023-02-21T00:01:32;7.20;94.00
14733;DHT22;7457;50.960;6.830;2023-02-21T00:04:16;7.20;93.90
14733;DHT22;7457;50.960;6.830;2023-02-21T00:07:00;7.20;93.90
14733;DHT22;7457;50.960;6.830;2023-02-21T00:09:44;7.20;93.80
14733;DHT22;7457;50.960;6.830;2023-02-21T00:12:28;7.10;93.80
14733;DHT22;7457;50.960;6.830;2023-02-21T00:15:12;7.10;94.00
14733;DHT22;7457;50.960;6.830;2023-02-21T00:17:56;7.10;94.10
14733;DHT22;7457;50.960;6.830;2023-02-21T00:20:40;7.20;94.10
14733;DHT22;7457;50.960;6.830;2023-02-21T00:23:24;7.20;94.10
14733;DHT22;7457;50.960;6.830;2023-02-21T00:26:08;7.20;94.10
14733;DHT22;7457;50.960;6.830;2023-02-21T00:28:52;7.20;94.10
14733;DHT22;7457;50.960;6.830;2023-02-21T00:31:36;7.20;94.10
14733;DHT22;7457;50.960;6.830;2023-02-21T00:34:20;7.20;94.30
14733;DHT22;7457;50.960;6.830;2023-02-21T00:37:04;7.30;94.30
14733;DHT22;7457;50.960;6.830;2023-02-21T00:39:48;7.30;94.40
14733;DHT22;7457;50.960;6.830;2023-02-21T00:42:32;7.30;94.30
14733;DHT22;7457;50.960;6.830;2023-02-21T00:45:16;7.40;94.30
14733;DHT22;7457;50.960;6.830;2023-02-21T00:48:00;7.40;94.20
14733;DHT22;7457;50.960;6.830;2023-02-21T00:50:45;7.40;94.10
14733;DHT22;7457;50.960;6.830;2023-02-21T00:53:29;7.50;94.10
14733;DHT22;7457;50.960;6.830;2023-02-21T00:56:13;7.50;94.00
14733;DHT22;7457;50.960;6.830;2023-02-21T00:58:57;7.50;93.90
14733;DHT22;7457;50.960;6.830;2023-02-21T01:01:41;7.50;93.90
14733;DHT22;7457;50.960;6.830;2023-02-21T01:04:25;7.50;93.80
14733;DHT22;7457;50.960;6.830;2023-02-21T01:07:09;7.60;93.80
14733;DHT22;7457;50.960;6.830;2023-02-21T01:09:53;7.50;93.80
14733;DHT22;7457;50.960;6.830;2023-02-21T01:12:37;7.50;93.70
14733;DHT22;7457;50.960;6.830;2023-02-21T01:15:21;7.60;93.70
14733;DHT22;7457;50.960;6.830;2023-02-21T01:18:05;7.60;93.70
14733;DHT22;7457;50.960;6.830;2023-02-21T01:20:49;7.60;93.70
14733;DHT22;7457;50.960;6.830;2023-02-21T01:23:33;7.60;93.70
14733;DHT22;7457;50.960;6.830;2023-02-21T01:26:17;7.60;93.70
14733;DHT22;7457;50.960;6.830;2023-02-21T01:29:02;7.60;93.70
14733;DHT22;7457;50.960;6.830;2023-02-21T01:31:48;7.60;93.70
14733;DHT22;7457;50.960;6.830;2023-02-21T01:34:32;7.60;93.70
14733;DHT22;7457;50.960;6.830;2023-02-21T01:37:16;7.70;93.70
14733;DHT22;7457;50.960;6.830;2023-02-21T01:40:00;7.70;93.70
14733;DHT22;7457;50.960;6.830;2023-02-21T01:42:44;7.70;93.60
14733;DHT22;7457;50.960;6.830;2023-02-21T01:48:17;7.70;93.60
14733;DHT22;7457;50.960;6.830;2023-02-21T01:51:03;7.70;93.60
14733;DHT22;7457;50.960;6.830;2023-02-21T01:53:47;7.70;93.50
14733;DHT22;7457;50.960;6.830;2023-02-21T01:56:32;7.60;93.50
14733;DHT22;7457;50.960;6.830;2023-02-21T01:59:18;7.60;93.60
14733;DHT22;7457;50.960;6.830;2023-02-21T02:02:17;7.60;93.60
14733;DHT22;7457;50.960;6.830;2023-02-21T02:05:04;7.60;93.70
14733;DHT22;7457;50.960;6.830;2023-02-21T02:07:49;7.60;93.60
14733;DHT22;7457;50.960;6.830;2023-02-21T02:10:34;7.60;93.60
14733;DHT22;7457;50.960;6.830;2023-02-21T02:19:14;7.40;93.60
14733;DHT22;7457;50.960;6.830;2023-02-21T02:24:43;7.30;93.80
14733;DHT22;7457;50.960;6.830;2023-02-21T02:27:33;7.30;94.00
14733;DHT22;7457;50.960;6.830;2023-02-21T02:35:38;7.40;94.20
14733;DHT22;7457;50.960;6.830;2023-02-21T02:38:26;7.40;94.10
14733;DHT22;7457;50.960;6.830;2023-02-21T02:41:16;7.40;94.10
14733;DHT22;7457;50.960;6.830;2023-02-21T02:43:53;7.40;94.10
14733;DHT22;7457;50.960;6.830;2023-02-21T02:46:23;7.40;94.10
14733;DHT22;7457;50.960;6.830;2023-02-21T02:49:13;7.40;94.20
14733;DHT22;7457;50.960;6.830;2023-02-21T02:51:39;7.40;94.20
14733;DHT22;7457;50.960;6.830;2023-02-21T02:54:05;7.40;94.30
14733;DHT22;7457;50.960;6.830;2023-02-21T02:56:30;7.50;94.30
14733;DHT22;7457;50.960;6.830;2023-02-21T03:07:24;7.50;94.30
14733;DHT22;7457;50.960;6.830;2023-02-21T03:12:59;7.50;94.20
14733;DHT22;7457;50.960;6.830;2023-02-21T03:15:37;7.50;94.20
14733;DHT22;7457;50.960;6.830;2023-02-21T03:18:27;7.50;94.20
14733;DHT22;7457;50.960;6.830;2023-02-21T03:20:56;7.50;94.30
14733;DHT22;7457;50.960;6.830;2023-02-21T03:23:26;7.50;94.30
14733;DHT22;7457;50.960;6.830;2023-02-21T03:25:55;7.50;94.40
14733;DHT22;7457;50.960;6.830;2023-02-21T03:28:22;7.60;94.40
14733;DHT22;7457;50.960;6.830;2023-02-21T03:30:51;7.50;94.40
14733;DHT22;7457;50.960;6.830;2023-02-21T03:33:17;7.60;94.50
14733;DHT22;7457;50.960;6.830;2023-02-21T03:35:43;7.60;94.50
14733;DHT22;7457;50.960;6.830;2023-02-21T03:38:09;7.60;94.50
14733;DHT22;7457;50.960;6.830;2023-02-21T03:40:35;7.60;94.50
14733;DHT22;7457;50.960;6.830;2023-02-21T03:43:02;7.60;94.50
14733;DHT22;7457;50.960;6.830;2023-02-21T03:45:29;7.60;94.50
14733;DHT22;7457;50.960;6.830;2023-02-21T03:47:55;7.60;94.50
14733;DHT22;7457;50.960;6.830;2023-02-21T03:50:20;7.60;94.60
14733;DHT22;7457;50.960;6.830;2023-02-21T03:52:46;7.60;94.60
14733;DHT22;7457;50.960;6.830;2023-02-21T03:55:12;7.60;94.60
14733;DHT22;7457;50.960;6.830;2023-02-21T03:57:37;7.60;94.60
14733;DHT22;7457;50.960;6.830;2023-02-21T04:00:04;7.60;94.60
14733;DHT22;7457;50.960;6.830;2023-02-21T04:02:29;7.60;94.60
14733;DHT22;7457;50.960;6.830;2023-02-21T04:04:55;7.60;94.60
14733;DHT22;7457;50.960;6.830;2023-02-21T04:07:21;7.50;94.60
14733;DHT22;7457;50.960;6.830;2023-02-21T04:09:47;7.60;94.60
14733;DHT22;7457;50.960;6.830;2023-02-21T04:12:14;7.50;94.70
14733;DHT22;7457;50.960;6.830;2023-02-21T04:14:40;7.50;94.60
14733;DHT22;7457;50.960;6.830;2023-02-21T04:17:05;7.60;94.70
14733;DHT22;7457;50.960;6.830;2023-02-21T04:19:31;7.60;94.70
14733;DHT22;7457;50.960;6.830;2023-02-21T04:21:57;7.50;94.70
14733;DHT22;7457;50.960;6.830;2023-02-21T04:24:22;7.50;94.70
14733;DHT22;7457;50.960;6.830;2023-02-21T04:26:48;7.50;94.70
14733;DHT22;7457;50.960;6.830;2023-02-21T04:29:14;7.50;94.70
14733;DHT22;7457;50.960;6.830;2023-02-21T04:31:40;7.50;94.70
14733;DHT22;7457;50.960;6.830;2023-02-21T04:34:05;7.50;94.70
14733;DHT22;7457;50.960;6.830;2023-02-21T04:36:31;7.50;94.70
14733;DHT22;7457;50.960;6.830;2023-02-21T04:38:57;7.50;94.80
14733;DHT22;7457;50.960;6.830;2023-02-21T04:41:23;7.50;94.80
14733;DHT22;7457;50.960;6.830;2023-02-21T04:43:48;7.50;94.80
14733;DHT22;7457;50.960;6.830;2023-02-21T04:46:17;7.50;94.80
14733;DHT22;7457;50.960;6.830;2023-02-21T04:48:46;7.50;94.80
14733;DHT22;7457;50.960;6.830;2023-02-21T04:51:14;7.50;94.80
14733;DHT22;7457;50.960;6.830;2023-02-21T04:53:40;7.50;94.80
14733;DHT22;7457;50.960;6.830;2023-02-21T04:56:05;7.50;94.80
14733;DHT22;7457;50.960;6.830;2023-02-21T04:58:32;7.40;94.80
14733;DHT22;7457;50.960;6.830;2023-02-21T05:00:57;7.50;94.80
14733;DHT22;7457;50.960;6.830;2023-02-21T05:03:23;7.50;94.80
14733;DHT22;7457;50.960;6.830;2023-02-21T05:05:49;7.40;94.80
14733;DHT22;7457;50.960;6.830;2023-02-21T05:08:15;7.40;94.80
14733;DHT22;7457;50.960;6.830;2023-02-21T05:10:40;7.40;94.80
14733;DHT22;7457;50.960;6.830;2023-02-21T05:13:06;7.40;94.80
14733;DHT22;7457;50.960;6.830;2023-02-21T05:15:31;7.40;94.80
14733;DHT22;7457;50.960;6.830;2023-02-21T05:17:57;7.40;94.90
14733;DHT22;7457;50.960;6.830;2023-02-21T05:20:22;7.40;94.90
14733;DHT22;7457;50.960;6.830;2023-02-21T05:22:49;7.40;94.90
14733;DHT22;7457;50.960;6.830;2023-02-21T05:25:20;7.40;94.90
14733;DHT22;7457;50.960;6.830;2023-02-21T05:27:46;7.40;95.00
14733;DHT22;7457;50.960;6.830;2023-02-21T05:30:13;7.40;95.00
14733;DHT22;7457;50.960;6.830;2023-02-21T05:32:40;7.40;95.00
14733;DHT22;7457;50.960;6.830;2023-02-21T05:35:06;7.40;95.00
14733;DHT22;7457;50.960;6.830;2023-02-21T05:37:32;7.40;95.00
14733;DHT22;7457;50.960;6.830;2023-02-21T05:39:58;7.40;95.00
14733;DHT22;7457;50.960;6.830;2023-02-21T05:42:23;7.40;95.00
14733;DHT22;7457;50.960;6.830;2023-02-21T05:44:49;7.40;95.00
14733;DHT22;7457;50.960;6.830;2023-02-21T05:47:15;7.30;95.10
14733;DHT22;7457;50.960;6.830;2023-02-21T05:49:40;7.30;95.10
14733;DHT22;7457;50.960;6.830;2023-02-21T05:52:07;7.40;95.10
14733;DHT22;7457;50.960;6.830;2023-02-21T05:54:34;7.30;95.10
14733;DHT22;7457;50.960;6.830;2023-02-21T05:57:00;7.30;95.20
14733;DHT22;7457;50.960;6.830;2023-02-21T05:59:26;7.30;95.20
14733;DHT22;7457;50.960;6.830;2023-02-21T06:01:51;7.30;95.20
14733;DHT22;7457;50.960;6.830;2023-02-21T06:04:17;7.30;95.20
14733;DHT22;7457;50.960;6.830;2023-02-21T06:06:44;7.30;95.40
14733;DHT22;7457;50.960;6.830;2023-02-21T06:09:10;7.30;95.50
14733;DHT22;7457;50.960;6.830;2023-02-21T06:11:37;7.30;95.50
14733;DHT22;7457;50.960;6.830;2023-02-21T06:14:06;7.20;95.60
14733;DHT22;7457;50.960;6.830;2023-02-21T06:16:34;7.30;95.60
14733;DHT22;7457;50.960;6.830;2023-02-21T06:19:00;7.20;95.70
14733;DHT22;7457;50.960;6.830;2023-02-21T06:21:26;7.20;95.70
14733;DHT22;7457;50.960;6.830;2023-02-21T06:23:52;7.20;95.70
14733;DHT22;7457;50.960;6.830;2023-02-21T06:26:18;7.20;95.80
14733;DHT22;7457;50.960;6.830;2023-02-21T06:28:45;7.20;95.90
14733;DHT22;7457;50.960;6.830;2023-02-21T06:31:11;7.10;96.00
14733;DHT22;7457;50.960;6.830;2023-02-21T06:33:37;7.10;96.00
14733;DHT22;7457;50.960;6.830;2023-02-21T06:36:07;7.10;96.00
14733;DHT22;7457;50.960;6.830;2023-02-21T06:38:33;7.10;96.10
14733;DHT22;7457;50.960;6.830;2023-02-21T06:41:00;7.10;96.10
14733;DHT22;7457;50.960;6.830;2023-02-21T06:43:25;7.10;96.30
14733;DHT22;7457;50.960;6.830;2023-02-21T06:45:51;7.10;96.40
14733;DHT22;7457;50.960;6.830;2023-02-21T06:48:17;7.10;96.50
14733;DHT22;7457;50.960;6.830;2023-02-21T06:50:42;7.10;96.60
14733;DHT22;7457;50.960;6.830;2023-02-21T06:53:08;7.10;96.60
14733;DHT22;7457;50.960;6.830;2023-02-21T06:55:34;7.00;96.70
14733;DHT22;7457;50.960;6.830;2023-02-21T06:58:00;7.00;96.80
14733;DHT22;7457;50.960;6.830;2023-02-21T07:00:26;7.00;96.80
14733;DHT22;7457;50.960;6.830;2023-02-21T07:02:52;7.00;97.00
14733;DHT22;7457;50.960;6.830;2023-02-21T07:05:18;7.00;97.20
14733;DHT22;7457;50.960;6.830;2023-02-21T07:07:44;7.00;97.30
14733;DHT22;7457;50.960;6.830;2023-02-21T07:10:10;7.00;97.40
14733;DHT22;7457;50.960;6.830;2023-02-21T07:12:36;7.00;97.50
14733;DHT22;7457;50.960;6.830;2023-02-21T07:15:02;7.00;97.50
14733;DHT22;7457;50.960;6.830;2023-02-21T07:17:28;7.00;97.60
14733;DHT22;7457;50.960;6.830;2023-02-21T07:19:53;7.00;97.80
14733;DHT22;7457;50.960;6.830;2023-02-21T07:22:19;7.00;97.90
14733;DHT22;7457;50.960;6.830;2023-02-21T07:24:54;7.00;97.90
14733;DHT22;7457;50.960;6.830;2023-02-21T07:27:20;7.00;97.90
14733;DHT22;7457;50.960;6.830;2023-02-21T07:29:47;7.00;98.10
14733;DHT22;7457;50.960;6.830;2023-02-21T07:32:13;7.00;98.30
14733;DHT22;7457;50.960;6.830;2023-02-21T07:34:39;7.00;98.30
14733;DHT22;7457;50.960;6.830;2023-02-21T07:37:05;7.10;98.40
14733;DHT22;7457;50.960;6.830;2023-02-21T07:39:30;7.10;98.40
14733;DHT22;7457;50.960;6.830;2023-02-21T07:41:56;7.10;98.40
14733;DHT22;7457;50.960;6.830;2023-02-21T07:44:21;7.10;98.40
14733;DHT22;7457;50.960;6.830;2023-02-21T07:46:47;7.10;98.40
14733;DHT22;7457;50.960;6.830;2023-02-21T07:49:12;7.10;98.60
14733;DHT22;7457;50.960;6.830;2023-02-21T07:51:38;7.10;98.70
14733;DHT22;7457;50.960;6.830;2023-02-21T07:54:04;7.10;98.80
14733;DHT22;7457;50.960;6.830;2023-02-21T07:56:29;7.20;98.70
14733;DHT22;7457;50.960;6.830;2023-02-21T07:58:55;7.20;98.60
14733;DHT22;7457;50.960;6.830;2023-02-21T08:01:24;7.20;98.60
14733;DHT22;7457;50.960;6.830;2023-02-21T08:03:51;7.20;98.60
14733;DHT22;7457;50.960;6.830;2023-02-21T08:06:16;7.20;98.80
14733;DHT22;7457;50.960;6.830;2023-02-21T08:08:43;7.20;98.70
14733;DHT22;7457;50.960;6.830;2023-02-21T08:11:09;7.20;98.80
14733;DHT22;7457;50.960;6.830;2023-02-21T08:13:35;7.30;98.80
14733;DHT22;7457;50.960;6.830;2023-02-21T08:16:00;7.30;98.90
14733;DHT22;7457;50.960;6.830;2023-02-21T08:18:26;7.30;98.80
14733;DHT22;7457;50.960;6.830;2023-02-21T08:20:55;7.30;98.80
14733;DHT22;7457;50.960;6.830;2023-02-21T08:23:22;7.30;98.80
14733;DHT22;7457;50.960;6.830;2023-02-21T08:25:48;7.30;98.80
14733;DHT22;7457;50.960;6.830;2023-02-21T08:28:15;7.30;98.90
14733;DHT22;7457;50.960;6.830;2023-02-21T08:30:41;7.40;99.00
14733;DHT22;7457;50.960;6.830;2023-02-21T08:33:07;7.40;99.00
14733;DHT22;7457;50.960;6.830;2023-02-21T08:35:32;7.40;99.00
14733;DHT22;7457;50.960;6.830;2023-02-21T08:37:58;7.40;98.90
14733;DHT22;7457;50.960;6.830;2023-02-21T08:40:28;7.40;98.80
14733;DHT22;7457;50.960;6.830;2023-02-21T08:42:55;7.50;98.80
14733;DHT22;7457;50.960;6.830;2023-02-21T08:45:22;7.50;98.90
14733;DHT22;7457;50.960;6.830;2023-02-21T08:47:50;7.50;98.80
14733;DHT22;7457;50.960;6.830;2023-02-21T08:50:17;7.60;98.70
14733;DHT22;7457;50.960;6.830;2023-02-21T08:52:47;7.60;98.70
14733;DHT22;7457;50.960;6.830;2023-02-21T08:55:13;7.60;98.60
14733;DHT22;7457;50.960;6.830;2023-02-21T08:57:39;7.60;98.50
14733;DHT22;7457;50.960;6.830;2023-02-21T09:00:05;7.60;98.50
14733;DHT22;7457;50.960;6.830;2023-02-21T09:02:34;7.60;98.40
14733;DHT22;7457;50.960;6.830;2023-02-21T09:05:12;7.60;98.50
14733;DHT22;7457;50.960;6.830;2023-02-21T09:07:38;7.60;98.70
14733;DHT22;7457;50.960;6.830;2023-02-21T09:10:05;7.70;98.90
14733;DHT22;7457;50.960;6.830;2023-02-21T09:12:31;7.70;99.00
14733;DHT22;7457;50.960;6.830;2023-02-21T09:14:57;7.70;98.80
14733;DHT22;7457;50.960;6.830;2023-02-21T09:17:22;7.80;98.80
14733;DHT22;7457;50.960;6.830;2023-02-21T09:19:48;7.80;98.80
14733;DHT22;7457;50.960;6.830;2023-02-21T09:22:13;7.90;98.80
14733;DHT22;7457;50.960;6.830;2023-02-21T09:24:40;7.90;98.70
14733;DHT22;7457;50.960;6.830;2023-02-21T09:27:06;7.90;98.60
14733;DHT22;7457;50.960;6.830;2023-02-21T09:29:33;7.90;98.60
14733;DHT22;7457;50.960;6.830;2023-02-21T09:32:00;8.00;98.50
14733;DHT22;7457;50.960;6.830;2023-02-21T09:34:26;8.00;98.40
14733;DHT22;7457;50.960;6.830;2023-02-21T09:36:52;8.00;98.40
14733;DHT22;7457;50.960;6.830;2023-02-21T09:39:19;8.00;98.60
14733;DHT22;7457;50.960;6.830;2023-02-21T09:41:46;8.10;98.60
14733;DHT22;7457;50.960;6.830;2023-02-21T09:44:23;8.10;98.40
14733;DHT22;7457;50.960;6.830;2023-02-21T09:47:02;8.10;98.20
14733;DHT22;7457;50.960;6.830;2023-02-21T09:49:34;8.20;98.20
14733;DHT22;7457;50.960;6.830;2023-02-21T09:52:01;8.10;98.10
14733;DHT22;7457;50.960;6.830;2023-02-21T09:54:42;8.20;97.90
14733;DHT22;7457;50.960;6.830;2023-02-21T09:57:13;8.20;97.80
14733;DHT22;7457;50.960;6.830;2023-02-21T09:59:39;8.20;97.80
14733;DHT22;7457;50.960;6.830;2023-02-21T10:16:58;8.30;97.80
14733;DHT22;7457;50.960;6.830;2023-02-21T10:19:28;8.40;97.80
14733;DHT22;7457;50.960;6.830;2023-02-21T10:21:56;8.40;97.70
14733;DHT22;7457;50.960;6.830;2023-02-21T10:24:27;8.50;97.60
14733;DHT22;7457;50.960;6.830;2023-02-21T10:30:04;8.60;97.60
14733;DHT22;7457;50.960;6.830;2023-02-21T10:32:31;8.60;97.30
14733;DHT22;7457;50.960;6.830;2023-02-21T10:34:57;8.70;97.00
14733;DHT22;7457;50.960;6.830;2023-02-21T10:42:41;8.70;96.90
14733;DHT22;7457;50.960;6.830;2023-02-21T10:45:10;8.80;96.90
14733;DHT22;7457;50.960;6.830;2023-02-21T10:53:31;8.90;96.40
14733;DHT22;7457;50.960;6.830;2023-02-21T10:58:47;8.90;96.30
14733;DHT22;7457;50.960;6.830;2023-02-21T11:03:48;9.00;96.30
14733;DHT22;7457;50.960;6.830;2023-02-21T11:06:51;9.10;96.20
14733;DHT22;7457;50.960;6.830;2023-02-21T11:09:38;9.10;95.70
14733;DHT22;7457;50.960;6.830;2023-02-21T11:15:14;9.10;95.50
14733;DHT22;7457;50.960;6.830;2023-02-21T11:17:42;9.20;95.40
14733;DHT22;7457;50.960;6.830;2023-02-21T11:22:40;9.20;95.10
14733;DHT22;7457;50.960;6.830;2023-02-21T11:30:32;9.30;94.90
14733;DHT22;7457;50.960;6.830;2023-02-21T11:32:59;9.30;94.80
14733;DHT22;7457;50.960;6.830;2023-02-21T11:35:49;9.40;94.80
14733;DHT22;7457;50.960;6.830;2023-02-21T11:40:56;9.40;94.50
14733;DHT22;7457;50.960;6.830;2023-02-21T11:43:27;9.50;94.50
14733;DHT22;7457;50.960;6.830;2023-02-21T11:46:21;9.50;94.30
14733;DHT22;7457;50.960;6.830;2023-02-21T11:52:02;9.60;94.40
14733;DHT22;7457;50.960;6.830;2023-02-21T11:54:30;9.70;94.30
14733;DHT22;7457;50.960;6.830;2023-02-21T12:05:12;9.90;93.80
14733;DHT22;7457;50.960;6.830;2023-02-21T12:16:11;10.30;92.80
14733;DHT22;7457;50.960;6.830;2023-02-21T12:38:12;10.80;91.00
14733;DHT22;7457;50.960;6.830;2023-02-21T12:43:37;10.80;91.10
14733;DHT22;7457;50.960;6.830;2023-02-21T12:46:36;11.00;91.10
14733;DHT22;7457;50.960;6.830;2023-02-21T12:54:39;11.40;90.30
14733;DHT22;7457;50.960;6.830;2023-02-21T12:57:22;11.50;89.80
14733;DHT22;7457;50.960;6.830;2023-02-21T13:00:17;11.60;89.20
14733;DHT22;7457;50.960;6.830;2023-02-21T13:05:55;11.70;89.50
14733;DHT22;7457;50.960;6.830;2023-02-21T13:09:05;11.80;89.30
14733;DHT22;7457;50.960;6.830;2023-02-21T13:11:40;12.00;88.70
14733;DHT22;7457;50.960;6.830;2023-02-21T13:14:15;12.10;89.10
14733;DHT22;7457;50.960;6.830;2023-02-21T13:16:41;12.20;88.90
14733;DHT22;7457;50.960;6.830;2023-02-21T13:19:10;12.40;88.70
14733;DHT22;7457;50.960;6.830;2023-02-21T13:24:47;12.60;87.00
14733;DHT22;7457;50.960;6.830;2023-02-21T13:32:59;12.40;86.30
14733;DHT22;7457;50.960;6.830;2023-02-21T13:35:33;12.30;86.50
14733;DHT22;7457;50.960;6.830;2023-02-21T13:38:00;12.30;86.50
14733;DHT22;7457;50.960;6.830;2023-02-21T13:41:02;12.30;86.00
14733;DHT22;7457;50.960;6.830;2023-02-21T13:43:31;12.20;85.60
14733;DHT22;7457;50.960;6.830;2023-02-21T13:51:53;12.20;86.10
14733;DHT22;7457;50.960;6.830;2023-02-21T13:57:34;12.30;85.50
14733;DHT22;7457;50.960;6.830;2023-02-21T14:05:20;12.30;85.40
14733;DHT22;7457;50.960;6.830;2023-02-21T14:10:26;12.20;85.00
14733;DHT22;7457;50.960;6.830;2023-02-21T14:12:55;12.10;85.10
14733;DHT22;7457;50.960;6.830;2023-02-21T14:15:22;12.10;84.90
14733;DHT22;7457;50.960;6.830;2023-02-21T14:17:50;12.00;85.00
14733;DHT22;7457;50.960;6.830;2023-02-21T14:20:19;11.90;85.00
14733;DHT22;7457;50.960;6.830;2023-02-21T14:22:49;11.70;85.10
14733;DHT22;7457;50.960;6.830;2023-02-21T14:25:16;11.70;85.20
14733;DHT22;7457;50.960;6.830;2023-02-21T14:27:43;11.60;85.20
14733;DHT22;7457;50.960;6.830;2023-02-21T14:32:46;11.40;85.30
14733;DHT22;7457;50.960;6.830;2023-02-21T14:35:50;11.40;85.50
14733;DHT22;7457;50.960;6.830;2023-02-21T14:38:28;11.30;85.60
14733;DHT22;7457;50.960;6.830;2023-02-21T15:05:43;10.20;86.60
14733;DHT22;7457;50.960;6.830;2023-02-21T15:08:16;10.10;86.80
14733;DHT22;7457;50.960;6.830;2023-02-21T15:10:47;10.10;87.10
14733;DHT22;7457;50.960;6.830;2023-02-21T15:13:29;10.00;87.40
14733;DHT22;7457;50.960;6.830;2023-02-21T15:18:29;9.90;87.50
14733;DHT22;7457;50.960;6.830;2023-02-21T15:23:24;9.70;87.90
14733;DHT22;7457;50.960;6.830;2023-02-21T15:25:55;9.70;88.00
14733;DHT22;7457;50.960;6.830;2023-02-21T15:28:32;9.70;88.10
14733;DHT22;7457;50.960;6.830;2023-02-21T15:33:27;9.70;87.90
14733;DHT22;7457;50.960;6.830;2023-02-21T15:36:00;9.60;88.10
14733;DHT22;7457;50.960;6.830;2023-02-21T15:38:41;9.50;88.30
14733;DHT22;7457;50.960;6.830;2023-02-21T15:46:45;9.50;88.60
14733;DHT22;7457;50.960;6.830;2023-02-21T15:49:19;9.50;88.60
14733;DHT22;7457;50.960;6.830;2023-02-21T15:51:45;9.50;88.60
14733;DHT22;7457;50.960;6.830;2023-02-21T15:57:00;9.50;88.80
14733;DHT22;7457;50.960;6.830;2023-02-21T15:59:27;9.40;89.00
14733;DHT22;7457;50.960;6.830;2023-02-21T16:04:36;9.30;89.20
14733;DHT22;7457;50.960;6.830;2023-02-21T16:07:04;9.30;89.20
14733;DHT22;7457;50.960;6.830;2023-02-21T16:09:32;9.20;89.30
14733;DHT22;7457;50.960;6.830;2023-02-21T16:12:30;9.20;89.40
14733;DHT22;7457;50.960;6.830;2023-02-21T16:17:44;9.00;89.50
14733;DHT22;7457;50.960;6.830;2023-02-21T16:20:19;9.00;89.40
14733;DHT22;7457;50.960;6.830;2023-02-21T16:22:49;8.90;89.50
14733;DHT22;7457;50.960;6.830;2023-02-21T16:25:20;8.80;89.40
14733;DHT22;7457;50.960;6.830;2023-02-21T16:27:53;8.70;89.50
14733;DHT22;7457;50.960;6.830;2023-02-21T16:30:26;8.60;89.60
14733;DHT22;7457;50.960;6.830;2023-02-21T16:32:57;8.60;89.60
14733;DHT22;7457;50.960;6.830;2023-02-21T16:35:24;8.50;89.60
14733;DHT22;7457;50.960;6.830;2023-02-21T16:37:56;8.40;89.70
14733;DHT22;7457;50.960;6.830;2023-02-21T16:40:31;8.30;89.90
14733;DHT22;7457;50.960;6.830;2023-02-21T16:42:58;8.30;89.90
14733;DHT22;7457;50.960;6.830;2023-02-21T16:45:26;8.20;90.10
14733;DHT22;7457;50.960;6.830;2023-02-21T16:48:00;8.10;90.20
14733;DHT22;7457;50.960;6.830;2023-02-21T16:52:54;8.00;90.50
14733;DHT22;7457;50.960;6.830;2023-02-21T16:55:20;7.90;90.60
14733;DHT22;7457;50.960;6.830;2023-02-21T16:57:47;7.90;90.70
14733;DHT22;7457;50.960;6.830;2023-02-21T17:00:16;7.90;90.80
14733;DHT22;7457;50.960;6.830;2023-02-21T17:02:42;7.80;90.90
14733;DHT22;7457;50.960;6.830;2023-02-21T17:05:08;7.70;91.00
14733;DHT22;7457;50.960;6.830;2023-02-21T17:07:33;7.70;91.10
14733;DHT22;7457;50.960;6.830;2023-02-21T17:09:59;7.60;91.20
14733;DHT22;7457;50.960;6.830;2023-02-21T17:12:25;7.60;91.30
14733;DHT22;7457;50.960;6.830;2023-02-21T17:14:50;7.50;91.40
14733;DHT22;7457;50.960;6.830;2023-02-21T17:17:16;7.50;91.50
14733;DHT22;7457;50.960;6.830;2023-02-21T17:19:42;7.40;91.60
14733;DHT22;7457;50.960;6.830;2023-02-21T17:22:07;7.40;91.70
14733;DHT22;7457;50.960;6.830;2023-02-21T17:24:33;7.40;91.90
14733;DHT22;7457;50.960;6.830;2023-02-21T17:26:59;7.40;92.00
14733;DHT22;7457;50.960;6.830;2023-02-21T17:29:24;7.30;92.10
14733;DHT22;7457;50.960;6.830;2023-02-21T17:31:54;7.30;92.10
14733;DHT22;7457;50.960;6.830;2023-02-21T17:34:21;7.30;92.20
14733;DHT22;7457;50.960;6.830;2023-02-21T17:36:50;7.20;92.30
14733;DHT22;7457;50.960;6.830;2023-02-21T17:39:20;7.20;92.50
14733;DHT22;7457;50.960;6.830;2023-02-21T17:41:47;7.10;92.60
14733;DHT22;7457;50.960;6.830;2023-02-21T17:44:13;7.10;92.80
14733;DHT22;7457;50.960;6.830;2023-02-21T17:46:44;7.10;92.90
14733;DHT22;7457;50.960;6.830;2023-02-21T17:49:12;7.10;92.90
14733;DHT22;7457;50.960;6.830;2023-02-21T17:51:38;7.10;93.00
14733;DHT22;7457;50.960;6.830;2023-02-21T17:54:04;7.00;93.10
14733;DHT22;7457;50.960;6.830;2023-02-21T17:56:29;7.00;93.10
14733;DHT22;7457;50.960;6.830;2023-02-21T17:58:55;7.00;93.20
14733;DHT22;7457;50.960;6.830;2023-02-21T18:01:21;7.00;93.30
14733;DHT22;7457;50.960;6.830;2023-02-21T18:03:47;7.00;93.50
14733;DHT22;7457;50.960;6.830;2023-02-21T18:06:14;7.00;93.70
14733;DHT22;7457;50.960;6.830;2023-02-21T18:08:40;7.00;93.80
14733;DHT22;7457;50.960;6.830;2023-02-21T18:11:09;7.00;93.80
14733;DHT22;7457;50.960;6.830;2023-02-21T18:13:36;7.00;93.90
14733;DHT22;7457;50.960;6.830;2023-02-21T18:16:01;7.00;93.90
14733;DHT22;7457;50.960;6.830;2023-02-21T18:18:30;7.00;93.90
14733;DHT22;7457;50.960;6.830;2023-02-21T18:20:55;7.00;94.00
14733;DHT22;7457;50.960;6.830;2023-02-21T18:23:22;7.00;94.00
14733;DHT22;7457;50.960;6.830;2023-02-21T18:25:48;7.10;94.00
14733;DHT22;7457;50.960;6.830;2023-02-21T18:28:14;7.00;94.00
14733;DHT22;7457;50.960;6.830;2023-02-21T18:30:39;7.00;93.90
14733;DHT22;7457;50.960;6.830;2023-02-21T18:33:06;7.00;93.90
14733;DHT22;7457;50.960;6.830;2023-02-21T18:35:31;7.00;94.00
14733;DHT22;7457;50.960;6.830;2023-02-21T18:37:57;6.90;94.00
14733;DHT22;7457;50.960;6.830;2023-02-21T18:40:22;6.90;94.00
14733;DHT22;7457;50.960;6.830;2023-02-21T18:43:04;6.90;94.10
14733;DHT22;7457;50.960;6.830;2023-02-21T18:45:31;6.80;94.10
14733;DHT22;7457;50.960;6.830;2023-02-21T18:48:00;6.80;94.10
14733;DHT22;7457;50.960;6.830;2023-02-21T18:50:26;6.70;94.20
14733;DHT22;7457;50.960;6.830;2023-02-21T18:52:52;6.60;94.30
14733;DHT22;7457;50.960;6.830;2023-02-21T18:55:17;6.60;94.30
14733;DHT22;7457;50.960;6.830;2023-02-21T18:57:45;6.50;94.40
14733;DHT22;7457;50.960;6.830;2023-02-21T19:00:16;6.50;94.50
14733;DHT22;7457;50.960;6.830;2023-02-21T19:02:41;6.40;94.60
14733;DHT22;7457;50.960;6.830;2023-02-21T19:05:10;6.30;94.70
14733;DHT22;7457;50.960;6.830;2023-02-21T19:07:41;6.30;94.80
14733;DHT22;7457;50.960;6.830;2023-02-21T19:10:08;6.20;94.90
14733;DHT22;7457;50.960;6.830;2023-02-21T19:12:34;6.20;95.00
14733;DHT22;7457;50.960;6.830;2023-02-21T19:15:00;6.10;95.00
14733;DHT22;7457;50.960;6.830;2023-02-21T19:17:25;6.00;95.00
14733;DHT22;7457;50.960;6.830;2023-02-21T19:19:51;6.00;95.20
14733;DHT22;7457;50.960;6.830;2023-02-21T19:22:16;5.90;95.30
14733;DHT22;7457;50.960;6.830;2023-02-21T19:24:42;5.90;95.40
14733;DHT22;7457;50.960;6.830;2023-02-21T19:27:07;5.80;95.50
14733;DHT22;7457;50.960;6.830;2023-02-21T19:29:34;5.70;95.60
14733;DHT22;7457;50.960;6.830;2023-02-21T19:31:59;5.70;95.60
14733;DHT22;7457;50.960;6.830;2023-02-21T19:34:25;5.70;95.70
14733;DHT22;7457;50.960;6.830;2023-02-21T19:36:50;5.60;95.80
14733;DHT22;7457;50.960;6.830;2023-02-21T19:39:16;5.60;95.90
14733;DHT22;7457;50.960;6.830;2023-02-21T19:41:42;5.50;96.00
14733;DHT22;7457;50.960;6.830;2023-02-21T19:44:08;5.50;96.10
14733;DHT22;7457;50.960;6.830;2023-02-21T19:46:34;5.40;96.10